Data for 07/22/2007

Time Sea-Level Adjusted Pressure Absolute Pressure Temperature Relative Humidity Dew Point   
(mb) (inHg) (mb) (inHg) (C) (F) (%) (C) (F)
00:05 1019 30.09 848 25.04 23.1 73.6 25 2.3 36.1
00:10 1019 30.09 848 25.04 23.2 73.7 25 2.5 36.5
00:15 1019 30.09 848 25.04 23.1 73.6 25 2.1 35.8
00:20 1019 30.09 848 25.04 23 73.4 25 2.2 36
00:25 1019 30.09 848 25.04 23 73.4 25 1.9 35.4
00:30 1019 30.09 848 25.04 23 73.4 25 2.2 36
00:35 1019 30.09 849 25.07 22.9 73.1 25 1.8 35.2
00:40 1019 30.09 849 25.07 22.8 73 26 2.3 36.2
00:45 1019 30.09 849 25.07 22.5 72.4 26 2 35.6
00:50 1019 30.09 849 25.07 22.5 72.5 24 1.4 34.4
00:55 1019 30.09 849 25.07 22.6 72.6 26 2.1 35.7
01:00 1019 30.09 849 25.07 22.3 72.1 26 1.8 35.3
01:05 1020 30.12 849 25.07 21.9 71.4 25 1.3 34.3
01:10 1020 30.12 849 25.07 22 71.7 26 1.8 35.2
01:15 1020 30.12 849 25.07 22.5 72.4 24 0.8 33.5
01:20 1020 30.12 849 25.07 22.3 72.2 25 1.6 34.9
01:25 1020 30.12 849 25.07 22.2 72 24 0.7 33.2
01:30 1020 30.12 849 25.07 22 71.7 27 2.1 35.9
01:35 1020 30.12 849 25.07 21.9 71.3 24 0.4 32.8
01:40 1020 30.12 849 25.07 22.3 72.1 23 0.4 32.7
01:45 1020 30.12 849 25.07 22.5 72.5 24 1 33.8
01:50 1020 30.12 849 25.07 22.1 71.9 23 0.5 32.9
01:55 1020 30.12 849 25.07 21.7 71.1 27 2.1 35.8
02:00 1020 30.12 849 25.07 20.7 69.2 28 1.6 35
02:05 1020 30.12 849 25.07 20.4 68.8 28 1.5 34.8
02:10 1020 30.12 849 25.07 20.5 68.9 29 2 35.7
02:15 1020 30.12 849 25.07 20 68 31 2.6 36.7
02:20 1020 30.12 849 25.07 19.4 66.9 30 1.7 35
02:25 1020 30.12 849 25.07 19.5 67.1 30 1.6 34.9
02:30 1020 30.12 849 25.07 19.4 66.9 31 2 35.5
02:35 1020 30.12 850 25.1 19.2 66.5 31 1.7 35.1
02:40 1020 30.12 850 25.1 19.4 66.9 30 1.5 34.8
02:45 1020 30.12 850 25.1 19 66.2 32 2.3 36.1
02:50 1020 30.12 850 25.1 18.6 65.4 32 1.8 35.3
02:55 1021 30.15 850 25.1 18.7 65.6 33 2.1 35.7
03:00 1021 30.15 850 25.1 18.7 65.6 32 2 35.6
03:05 1021 30.15 850 25.1 18.5 65.4 33 2 35.6
03:10 1021 30.15 850 25.1 18.4 65.1 34 2.5 36.5
03:15 1021 30.15 850 25.1 17.7 63.8 36 2.4 36.3
03:20 1021 30.15 850 25.1 17.6 63.7 35 1.9 35.5
03:25 1021 30.15 850 25.1 17.9 64.2 32 1.2 34.1
03:30 1021 30.15 850 25.1 18.2 64.8 31 1 33.8
03:35 1021 30.15 850 25.1 18.6 65.5 31 1.5 34.6
03:40 1021 30.15 850 25.1 18.6 65.5 30 0.9 33.7
03:45 1021 30.15 850 25.1 18.6 65.4 33 2.1 35.8
03:50 1021 30.15 851 25.13 18.3 65 32 1.5 34.7
03:55 1021 30.15 851 25.13 17.7 63.9 35 2.2 36
04:00 1021 30.15 851 25.13 17.4 63.3 35 2.1 35.7
04:05 1022 30.18 851 25.13 17.1 62.9 35 1.8 35.2
04:10 1022 30.18 851 25.13 17.1 62.9 38 2.7 36.8
04:15 1022 30.18 851 25.13 16.7 62.1 39 2.6 36.8
04:20 1022 30.18 851 25.13 16.9 62.5 35 1.6 34.9
04:25 1022 30.18 851 25.13 17.6 63.6 35 2 35.6
04:30 1022 30.18 851 25.13 17.4 63.4 37 2.9 37.1
04:35 1022 30.18 851 25.13 16.7 62 40 3.2 37.7
04:40 1022 30.18 851 25.13 16.5 61.6 39 2.5 36.4
04:45 1022 30.18 851 25.13 16.6 62 38 2.5 36.5
04:50 1022 30.18 851 25.13 16.7 62.1 37 2.3 36.1
04:55 1022 30.18 851 25.13 16.6 61.8 39 2.6 36.7
05:00 1022 30.18 851 25.13 16.7 62.1 37 2.2 35.9
05:05 1022 30.18 851 25.13 16.7 62 38 2.5 36.5
05:10 1022 30.18 851 25.13 16.6 61.9 38 2.2 36
05:15 1022 30.18 851 25.13 16.6 61.8 38 2.5 36.4
05:20 1022 30.18 851 25.13 16.3 61.3 41 3 37.4
05:25 1022 30.18 851 25.13 16 60.9 40 2.4 36.3
05:30 1022 30.18 851 25.13 16.5 61.7 37 2 35.6
05:35 1022 30.18 852 25.16 17 62.5 36 1.8 35.2
05:40 1022 30.18 852 25.16 17.4 63.3 35 1.9 35.4
05:45 1022 30.18 852 25.16 17.5 63.5 35 2 35.6
05:50 1023 30.21 852 25.16 17.3 63.1 35 1.8 35.2
05:55 1023 30.21 852 25.16 17.6 63.7 35 2 35.6
06:00 1023 30.21 852 25.16 17.6 63.6 35 1.9 35.5
06:05 1023 30.21 852 25.16 17.5 63.5 34 1.7 35
06:10 1023 30.21 852 25.16 17.9 64.3 34 1.8 35.3
06:15 1023 30.21 852 25.16 18 64.4 34 2.2 35.9
06:20 1023 30.21 852 25.16 18.1 64.6 34 2 35.6
06:25 1023 30.21 852 25.16 18.3 65 35 2.5 36.6
06:30 1023 30.21 852 25.16 18.3 64.9 34 2.3 36.1
06:35 1023 30.21 852 25.16 18.2 64.8 35 2.6 36.6
06:40 1023 30.21 852 25.16 18.3 64.9 34 2.2 35.9
06:45 1023 30.21 852 25.16 18.6 65.5 34 2.5 36.6
06:50 1023 30.21 852 25.16 18.4 65 35 2.7 36.8
06:55 1023 30.21 852 25.16 18.3 64.9 34 2.3 36.1
07:00 1023 30.21 852 25.16 18.7 65.7 34 2.5 36.4
07:05 1023 30.21 852 25.16 19.1 66.3 33 2.7 36.8
07:10 1023 30.21 853 25.19 19.3 66.7 33 2.9 37.2
07:15 1023 30.21 853 25.19 19.3 66.8 33 3 37.4
07:20 1023 30.21 853 25.19 19.5 67 35 3.6 38.6
07:25 1024 30.24 853 25.19 19.4 66.9 35 3.9 39
07:30 1024 30.24 853 25.19 19.2 66.5 36 3.9 39
07:35 1024 30.24 853 25.19 19 66.1 37 4.3 39.7
07:40 1024 30.24 853 25.19 18.8 65.8 38 4.4 39.8
07:45 1024 30.24 853 25.19 18.7 65.7 40 5.1 41.1
07:50 1024 30.24 853 25.19 18.5 65.4 41 5.2 41.3
07:55 1024 30.24 853 25.19 18.5 65.3 41 5 41
08:00 1024 30.24 853 25.19 18.7 65.6 40 4.9 40.8
08:05 1024 30.24 853 25.19 19.3 66.7 38 4.9 40.9
08:10 1024 30.24 853 25.19 19.8 67.7 38 5.4 41.8
08:15 1024 30.24 853 25.19 20.3 68.5 36 5 41
08:20 1024 30.24 853 25.19 20.7 69.2 38 6.2 43.2
08:25 1024 30.24 853 25.19 20.5 69 39 6.2 43.2
08:30 1024 30.24 853 25.19 20.8 69.4 37 5.8 42.5
08:35 1024 30.24 853 25.19 21.4 70.5 36 5.8 42.4
08:40 1024 30.24 853 25.19 21.9 71.5 36 6.3 43.3
08:45 1024 30.24 853 25.19 22 71.6 39 7.4 45.3
08:50 1024 30.24 853 25.19 21.9 71.3 38 7.2 44.9
08:55 1024 30.24 853 25.19 22.1 71.8 38 7.2 45
09:00 1024 30.24 853 25.19 22.9 73.2 34 6.4 43.5
09:05 1024 30.24 853 25.19 23.3 73.9 33 6.4 43.5
09:10 1024 30.24 853 25.19 23.6 74.4 33 6.6 43.9
09:15 1024 30.24 853 25.19 23.7 74.7 31 6 42.9
09:20 1024 30.24 853 25.19 23.5 74.4 33 6.5 43.7
09:25 1024 30.24 853 25.19 23.8 74.8 31 6 42.8
09:30 1024 30.24 853 25.19 23.9 75.1 32 6.2 43.2
09:35 1024 30.24 853 25.19 24 75.2 30 5.8 42.5
09:40 1024 30.24 853 25.19 24.4 76 30 5.9 42.6
09:45 1024 30.24 853 25.19 25.1 77.3 28 5.8 42.5
09:50 1024 30.24 853 25.19 25.7 78.2 29 6.6 43.8
09:55 1024 30.24 853 25.19 26.1 79 27 5.8 42.4
10:00 1024 30.24 853 25.19 26.3 79.3 28 6.7 44
10:05 1024 30.24 853 25.19 26.3 79.4 28 6.8 44.2
10:10 1024 30.24 853 25.19 26.1 78.9 29 7.1 44.7
10:15 1024 30.24 853 25.19 26.7 80.1 28 7 44.6
10:20 1024 30.24 853 25.19 27.4 81.2 27 6.8 44.2
10:25 1024 30.24 853 25.19 27.8 82 27 7.3 45.1
10:30 1024 30.24 853 25.19 28 82.3 26 7.1 44.8
10:35 1024 30.24 853 25.19 28 82.4 25 6.4 43.6
10:40 1024 30.24 853 25.19 28 82.4 25 6.6 43.9
10:45 1024 30.24 853 25.19 28.1 82.6 25 6.4 43.5
10:50 1024 30.24 853 25.19 28.2 82.8 25 6.6 43.9
10:55 1024 30.24 853 25.19 28.4 83 24 6.2 43.1
11:00 1024 30.24 853 25.19 28.2 82.8 26 7 44.6
11:05 1024 30.24 853 25.19 28.6 83.4 24 6.3 43.3
11:10 1024 30.24 853 25.19 28.6 83.5 24 6.6 44
11:15 1024 30.24 853 25.19 28.9 84.1 24 6.4 43.5
11:20 1024 30.24 853 25.19 29.7 85.5 22 6 42.9
11:25 1024 30.24 853 25.19 30 86 21 5.4 41.6
11:30 1024 30.24 853 25.19 29.1 84.4 22 5.9 42.6
11:35 1024 30.24 853 25.19 29.1 84.3 22 5.7 42.3
11:40 1024 30.24 853 25.19 29.1 84.4 22 5.3 41.5
11:45 1024 30.24 853 25.19 29.4 84.9 21 5.1 41.1
11:50 1024 30.24 853 25.19 29.7 85.4 21 5.5 41.8
11:55 1024 30.24 853 25.19 30 85.9 19 4.5 40
12:00 1024 30.24 853 25.19 30.3 86.5 20 4.8 40.7
12:05 1024 30.24 853 25.19 31.1 87.9 18 4.6 40.3
12:10 1024 30.24 853 25.19 31.5 88.7 19 5.3 41.6
12:15 1024 30.24 853 25.19 31.1 88 19 5.5 41.9
12:20 1024 30.24 853 25.19 31.1 88.1 19 5.3 41.6
12:25 1024 30.24 853 25.19 32 89.5 20 6.3 43.3
12:30 1024 30.24 853 25.19 31.4 88.5 21 6.9 44.4
12:35 1024 30.24 853 25.19 31.4 88.6 20 6 42.9
12:40 1024 30.24 853 25.19 31.8 89.2 18 5.1 41.2
12:45 1024 30.24 853 25.19 31.8 89.2 20 6.3 43.3
12:50 1024 30.24 853 25.19 31.8 89.2 19 5.7 42.2
12:55 1023 30.21 853 25.19 32.2 89.9 18 5.3 41.5
13:00 1023 30.21 853 25.19 32.2 89.9 19 6.3 43.4
13:05 1023 30.21 853 25.19 32.6 90.6 19 6.3 43.3
13:10 1023 30.21 853 25.19 32.2 90 20 6.6 43.9
13:15 1023 30.21 852 25.16 32.7 90.8 18 5.4 41.8
13:20 1023 30.21 852 25.16 32.4 90.4 18 5.1 41.2
13:25 1023 30.21 852 25.16 32.8 91 18 6.1 43.1
13:30 1023 30.21 852 25.16 32.9 91.2 19 6.7 44.1
13:35 1023 30.21 852 25.16 32.8 91 20 7.4 45.3
13:40 1023 30.21 852 25.16 32.7 90.9 19 6.6 43.9
13:45 1023 30.21 852 25.16 33.4 92.1 18 6.3 43.3
13:50 1023 30.21 852 25.16 33.8 92.8 16 5 41
13:55 1023 30.21 852 25.16 33.2 91.8 19 7.2 45
14:00 1023 30.21 852 25.16 31.8 89.2 20 6.5 43.7
14:05 1023 30.21 852 25.16 32.3 90.2 20 6.6 43.8
14:10 1023 30.21 852 25.16 33 91.3 17 5.1 41.3
14:15 1023 30.21 852 25.16 33.4 92.2 17 5.7 42.2
14:20 1023 30.21 852 25.16 33.7 92.7 18 6.2 43.2
14:25 1023 30.21 852 25.16 34 93.1 16 4.7 40.5
14:30 1023 30.21 852 25.16 33.8 92.9 16 4.9 40.8
14:35 1022 30.18 852 25.16 33.5 92.3 15 3.7 38.7
14:40 1022 30.18 852 25.16 34 93.3 13 2.5 36.5
14:45 1022 30.18 852 25.16 34.2 93.6 14 3.6 38.5
14:50 1022 30.18 852 25.16 34.3 93.8 14 3.3 38
14:55 1022 30.18 851 25.13 34.2 93.6 15 4.4 40
15:00 1022 30.18 851 25.13 34.4 94 15 4.3 39.7
15:05 1022 30.18 851 25.13 34 93.2 16 4.7 40.5
15:10 1022 30.18 851 25.13 34.2 93.5 14 3.8 38.9
15:15 1022 30.18 851 25.13 33.9 93 15 4 39.2
15:20 1022 30.18 851 25.13 34.5 94.1 15 4.4 40
15:25 1022 30.18 851 25.13 34.6 94.2 15 4.8 40.7
15:30 1022 30.18 851 25.13 33.5 92.3 15 3.4 38.2
15:35 1022 30.18 851 25.13 33.2 91.7 15 3.9 39.1
15:40 1022 30.18 851 25.13 34 93.1 15 3.9 39.1
15:45 1022 30.18 851 25.13 34.3 93.7 14 3.7 38.6
15:50 1022 30.18 851 25.13 33.4 92.2 15 3.7 38.7
15:55 1022 30.18 851 25.13 33.8 92.9 15 4.1 39.5
16:00 1022 30.18 851 25.13 34.4 94 15 4.1 39.4
16:05 1022 30.18 851 25.13 34.2 93.5 15 4 39.1
16:10 1022 30.18 851 25.13 33.9 93.1 15 3.7 38.6
16:15 1022 30.18 851 25.13 34.3 93.8 15 4.2 39.5
16:20 1022 30.18 851 25.13 34.7 94.4 14 3.7 38.6
16:25 1022 30.18 851 25.13 34.6 94.4 14 3.5 38.3
16:30 1022 30.18 851 25.13 34.9 94.7 14 3.7 38.7
16:35 1022 30.18 851 25.13 35.2 95.3 14 3.7 38.6
16:40 1022 30.18 851 25.13 35.1 95.3 14 4.1 39.3
16:45 1021 30.15 851 25.13 34.3 93.7 14 3.4 38.1
16:50 1021 30.15 851 25.13 33.7 92.6 14 2.9 37.2
16:55 1021 30.15 851 25.13 33 91.3 15 3 37.3
17:00 1021 30.15 851 25.13 33.2 91.8 14 2.5 36.4
17:05 1021 30.15 851 25.13 33.4 92 15 3.7 38.6
17:10 1021 30.15 851 25.13 33.4 92.1 15 3.5 38.3
17:15 1021 30.15 850 25.1 34.1 93.4 15 4 39.1
17:20 1021 30.15 850 25.1 34.3 93.7 14 3.1 37.6
17:25 1021 30.15 850 25.1 34.4 93.8 14 3.4 38.1
17:30 1021 30.15 850 25.1 34.1 93.4 15 4.1 39.3
17:35 1021 30.15 850 25.1 33.4 92.1 15 3.6 38.4
17:40 1021 30.15 850 25.1 33.3 91.9 15 3.3 38
17:45 1021 30.15 850 25.1 33.5 92.3 14 3.2 37.8
17:50 1021 30.15 850 25.1 33.2 91.8 15 3.7 38.6
17:55 1021 30.15 850 25.1 34.1 93.3 15 4.2 39.6
18:00 1021 30.15 850 25.1 33.8 92.9 15 3.6 38.5
18:05 1021 30.15 850 25.1 33.7 92.6 15 3.6 38.5
18:10 1021 30.15 850 25.1 33.1 91.6 15 3.2 37.8
18:15 1021 30.15 850 25.1 33 91.3 15 3 37.4
18:20 1021 30.15 850 25.1 33.3 91.9 15 3.2 37.8
18:25 1021 30.15 850 25.1 32.9 91.3 14 2.5 36.6
18:30 1021 30.15 850 25.1 33.3 92 14 2.8 37.1
18:35 1021 30.15 850 25.1 33.4 92 14 2.4 36.4
18:40 1021 30.15 850 25.1 33 91.4 15 3 37.3
18:45 1021 30.15 850 25.1 32.8 91 14 2.4 36.4
18:50 1021 30.15 850 25.1 32.7 90.9 15 2.9 37.3
18:55 1021 30.15 850 25.1 32.9 91.2 14 2.8 37
19:00 1021 30.15 850 25.1 33 91.3 14 2.3 36.1
19:05 1021 30.15 850 25.1 32.8 91.1 15 2.8 37
19:10 1021 30.15 850 25.1 32.9 91.1 14 2.4 36.2
19:15 1021 30.15 850 25.1 32.9 91.3 14 2.7 36.9
19:20 1021 30.15 850 25.1 33 91.3 15 2.9 37.3
19:25 1021 30.15 850 25.1 32.7 90.8 15 2.9 37.3
19:30 1021 30.15 850 25.1 32.5 90.5 14 2.4 36.3
19:35 1021 30.15 850 25.1 32.5 90.5 17 5 40.9
19:40 1021 30.15 850 25.1 32.5 90.6 19 6.3 43.3
19:45 1021 30.15 850 25.1 32.4 90.2 17 4.9 40.8
19:50 1021 30.15 850 25.1 32.2 89.9 19 6.2 43.2
19:55 1021 30.15 850 25.1 32 89.7 17 4.7 40.4
20:00 1021 30.15 850 25.1 31.9 89.4 21 7 44.7
20:05 1021 30.15 850 25.1 31.5 88.7 24 9.1 48.4
20:10 1021 30.15 850 25.1 31 87.8 24 8.1 46.6
20:15 1021 30.15 850 25.1 30.8 87.5 21 6.7 44
20:20 1021 30.15 850 25.1 30.5 87 27 9.7 49.5
20:25 1021 30.15 850 25.1 29.7 85.4 33 12 53.6
20:30 1021 30.15 850 25.1 28.6 83.5 33 11.2 52.2
20:35 1021 30.15 850 25.1 28 82.4 35 11.6 52.8
20:40 1021 30.15 850 25.1 27.9 82.2 34 11 51.7
20:45 1021 30.15 850 25.1 27.7 81.9 32 9.7 49.4
20:50 1021 30.15 850 25.1 27.2 81 34 10.5 50.8
20:55 1021 30.15 850 25.1 27 80.6 31 8.6 47.4
21:00 1021 30.15 850 25.1 27.1 80.7 33 9.5 49.2
21:05 1021 30.15 850 25.1 27.4 81.3 26 6.6 43.9
21:10 1021 30.15 850 25.1 27.3 81.2 34 10.3 50.5
21:15 1021 30.15 850 25.1 26.5 79.6 33 9.2 48.5
21:20 1021 30.15 850 25.1 25.7 78.3 34 9.1 48.5
21:25 1021 30.15 850 25.1 25.3 77.6 31 7.1 44.8
21:30 1021 30.15 850 25.1 26.1 78.9 26 5.4 41.8
21:35 1021 30.15 850 25.1 26.4 79.5 27 6 42.9
21:40 1021 30.15 851 25.13 26 78.9 26 5.6 42
21:45 1021 30.15 851 25.13 26 78.8 27 5.9 42.7
21:50 1021 30.15 851 25.13 25.8 78.4 26 5.1 41.2
21:55 1021 30.15 851 25.13 25.5 78 27 5.6 42
22:00 1021 30.15 851 25.13 25.3 77.5 27 5.3 41.5
22:05 1021 30.15 851 25.13 24.9 76.8 28 5.5 41.9
22:10 1021 30.15 851 25.13 24.7 76.4 29 5.8 42.5
22:15 1021 30.15 851 25.13 24.2 75.6 30 5.7 42.2
22:20 1021 30.15 851 25.13 24 75.3 29 5.1 41.2
22:25 1021 30.15 851 25.13 24.2 75.6 29 5.1 41.2
22:30 1022 30.18 851 25.13 24.5 76 29 5.6 42
22:35 1022 30.18 851 25.13 23.9 75 30 5.6 42.1
22:40 1022 30.18 851 25.13 23.8 74.8 34 7.4 45.3
22:45 1022 30.18 851 25.13 23.6 74.5 31 5.8 42.5
22:50 1022 30.18 851 25.13 24.1 75.3 28 4.7 40.4
22:55 1022 30.18 851 25.13 24.2 75.5 28 5 41
23:00 1022 30.18 851 25.13 24.2 75.6 29 5.1 41.2
23:05 1022 30.18 851 25.13 24.1 75.3 28 4.7 40.5
23:10 1022 30.18 851 25.13 24.2 75.6 28 4.6 40.2
23:15 1022 30.18 851 25.13 24.3 75.8 27 4.5 40.1
23:20 1022 30.18 851 25.13 24.1 75.4 28 4.5 40
23:25 1022 30.18 851 25.13 24.1 75.4 28 4.7 40.4
23:30 1022 30.18 851 25.13 24 75.2 29 5.1 41.2
23:35 1022 30.18 851 25.13 23.9 75.1 28 4.8 40.6
23:40 1021 30.15 851 25.13 23.8 74.9 29 5 41.1
23:45 1021 30.15 851 25.13 23.8 74.8 29 4.9 40.9
23:50 1021 30.15 851 25.13 23.9 75 29 4.8 40.7
23:55 1021 30.15 851 25.13 24 75.2 29 5.2 41.3
24:00 1021 30.15 851 25.13 23.8 74.8 33 6.7 44